createdAt,value
2018-12-31T00:03:31.901Z,8.4
2018-12-31T00:13:31.028Z,8.4
2018-12-31T00:23:30.228Z,8.4
2018-12-31T00:33:29.429Z,8.4
2018-12-31T00:43:28.640Z,8.4
2018-12-31T00:53:27.843Z,8.4
2018-12-31T01:03:27.043Z,8.4
2018-12-31T01:13:26.253Z,8.4
2018-12-31T01:23:25.455Z,8.4
2018-12-31T01:33:24.652Z,8.3
2018-12-31T01:43:23.855Z,8.3
2018-12-31T01:53:23.055Z,8.3
2018-12-31T02:03:22.261Z,8.3
2018-12-31T02:13:21.464Z,8.3
2018-12-31T02:23:20.670Z,8.3
2018-12-31T02:33:19.898Z,8.3
2018-12-31T02:43:19.067Z,8.3
2018-12-31T02:53:18.272Z,8.3
2018-12-31T03:03:17.480Z,8.3
2018-12-31T03:13:16.681Z,8.2
2018-12-31T03:23:15.879Z,8.1
2018-12-31T03:33:15.088Z,8.1
2018-12-31T03:43:14.296Z,8.1
2018-12-31T03:53:13.489Z,8.1
2018-12-31T04:03:12.694Z,8.1
2018-12-31T04:13:11.891Z,8
2018-12-31T04:23:11.102Z,8
2018-12-31T04:33:10.301Z,8.1
2018-12-31T04:43:09.495Z,8.1
2018-12-31T04:53:08.702Z,8.1
2018-12-31T05:03:07.902Z,8.1
2018-12-31T05:13:07.111Z,8.1
2018-12-31T05:23:06.317Z,8.1
2018-12-31T05:33:05.506Z,8.1
2018-12-31T05:43:04.706Z,8.1
2018-12-31T05:53:03.905Z,8.1
2018-12-31T06:03:03.107Z,8.1
2018-12-31T06:13:02.307Z,8.1
2018-12-31T06:23:01.522Z,8
2018-12-31T06:33:00.715Z,7.9
2018-12-31T06:42:59.910Z,7.9
2018-12-31T06:52:59.124Z,7.9
2018-12-31T07:02:58.312Z,5.4
2018-12-31T07:12:57.513Z,5.1
2018-12-31T07:22:56.717Z,4.8
2018-12-31T07:32:55.924Z,4.7
2018-12-31T07:42:55.123Z,5.1
2018-12-31T07:52:54.319Z,5.3
2018-12-31T08:02:53.518Z,5.4
2018-12-31T08:12:52.716Z,5.3
2018-12-31T08:22:51.928Z,5.6
2018-12-31T08:32:51.130Z,5.8
2018-12-31T08:42:50.335Z,6.1
2018-12-31T08:52:49.534Z,6.3
2018-12-31T09:02:48.737Z,6.3
2018-12-31T09:12:47.939Z,6.3
2018-12-31T09:22:47.141Z,6.3
2018-12-31T09:32:46.354Z,6.2
2018-12-31T09:42:45.561Z,6.1
2018-12-31T09:52:44.765Z,6.3
2018-12-31T10:02:43.976Z,6.1
2018-12-31T10:12:43.177Z,6.1
2018-12-31T10:22:42.381Z,6.1
2018-12-31T10:32:41.589Z,6
2018-12-31T10:42:40.796Z,6.1
2018-12-31T10:52:39.998Z,6.1
2018-12-31T11:02:39.197Z,6
2018-12-31T11:12:38.408Z,6.1
2018-12-31T11:22:37.625Z,6.2
2018-12-31T11:32:36.838Z,6.3
2018-12-31T11:42:36.041Z,6.4
2018-12-31T11:52:35.253Z,6.8
2018-12-31T12:02:34.459Z,7.3
2018-12-31T12:12:33.663Z,7.1
2018-12-31T12:22:32.870Z,6.9
2018-12-31T12:32:32.080Z,6.6
2018-12-31T12:42:31.290Z,6.3
2018-12-31T12:52:30.489Z,6.1
2018-12-31T13:02:29.712Z,6
2018-12-31T13:12:28.908Z,5.9
2018-12-31T13:22:28.121Z,5.9
2018-12-31T13:32:27.338Z,5.9
2018-12-31T13:42:26.533Z,5.8
2018-12-31T13:52:25.749Z,5.8
2018-12-31T14:02:24.966Z,5.8
2018-12-31T14:12:24.158Z,5.6
2018-12-31T14:22:23.370Z,5.6
2018-12-31T14:32:22.570Z,5.5
2018-12-31T14:42:21.771Z,5.4
2018-12-31T14:52:20.975Z,5.3
2018-12-31T15:02:20.183Z,5.3
2018-12-31T15:12:19.385Z,5.4
2018-12-31T15:22:18.592Z,6.7
2018-12-31T15:32:17.811Z,7.3
2018-12-31T15:42:17.015Z,7.7
2018-12-31T15:52:16.224Z,7.9
2018-12-31T16:02:15.442Z,8.1
2018-12-31T16:12:14.643Z,8.3
2018-12-31T16:22:13.857Z,8.4
2018-12-31T16:32:13.072Z,8.4
2018-12-31T16:42:12.280Z,8.6
2018-12-31T16:52:11.484Z,8.6
2018-12-31T17:02:10.697Z,8.6
2018-12-31T17:12:09.913Z,8.7
2018-12-31T17:22:09.115Z,8.6
2018-12-31T17:32:08.331Z,8.5
2018-12-31T17:42:09.745Z,8.5
2018-12-31T17:52:06.757Z,8.4
2018-12-31T18:02:05.962Z,8.4
2018-12-31T18:12:05.184Z,8.4
2018-12-31T18:22:04.396Z,8.5
2018-12-31T18:32:03.605Z,8.6
2018-12-31T18:42:02.804Z,8.6
2018-12-31T18:52:02.012Z,8.6
2018-12-31T19:02:01.230Z,8.6
2018-12-31T19:12:00.434Z,8.6
2018-12-31T19:21:59.640Z,8.6
2018-12-31T19:31:58.851Z,8.6
2018-12-31T19:41:58.059Z,8.6
2018-12-31T19:51:57.261Z,8.5
2018-12-31T20:01:56.739Z,8.4
2018-12-31T20:11:55.673Z,8.4
2018-12-31T20:21:54.883Z,8.4
2018-12-31T20:31:54.096Z,8.4
2018-12-31T20:41:53.303Z,8.4
2018-12-31T20:51:52.507Z,8.4
2018-12-31T21:01:53.597Z,8.4
2018-12-31T21:11:50.920Z,8.4
2018-12-31T21:21:50.133Z,8.4
2018-12-31T21:31:49.343Z,8.3
2018-12-31T21:41:48.544Z,8.3
2018-12-31T21:51:47.749Z,8.3
2018-12-31T22:01:46.969Z,8.2
2018-12-31T22:11:46.167Z,8.2
2018-12-31T22:21:45.376Z,8.1
2018-12-31T22:31:44.592Z,8.1
2018-12-31T22:41:43.796Z,7.8
2018-12-31T22:51:43.010Z,7.6
2018-12-31T23:01:42.205Z,7.4
2018-12-31T23:11:41.412Z,7.3
2018-12-31T23:21:40.616Z,7.3
2018-12-31T23:31:39.828Z,7.1
2018-12-31T23:41:39.040Z,7.1
2018-12-31T23:51:38.247Z,7.1
